Ashton, Kansas
Current Conditions -  °F | °C
As of 10:54 PM on Sunday 21 Dec 2014 (Local Time) from KWLD Reporting Station
Haze Haze  
Wind Chill: 37°   Ceiling: 600
Heat Index: 44°   Visibility: 6mi
Dew Point: 43°   Wind: 15mph
Humidity: 96%   Direction: 150°SSE
Pressure: 29.68"   Gusts: NA
Location:  37.0641°N, 97.2025°W
Report Text: KWLD 220454Z AUTO 15013KT 6SM BR OVC006 07/06 A2968 RMK AO2 SLP054 T00670061
Loading
Personal Weather Stations






























Interactive Weather Map New forecast layout! Learn more

10-Day Weather Forecast

Advertisements
Track Severe Weather on mobile